Latest Weather Observations for Kingscote

IDS60801

Issued at 6:31 am CST Monday 2 May 2016 (issued every 30 minutes, with the page automatically refreshed every 10 minutes)

About weather observations | Map of weather stations | Latest weather observations for SA | Other Formats
Station Details ID: 022841 Name: KINGSCOTE AERO Lat: -35.71 Lon: 137.52 Height: 6.23 m
Data from the previous 72 hours. | See also: Recent months at Kingscote
Date/Time
CST
Temp
°C
App
Temp
°C
Dew
Point
Rel
Hum
%
Delta-T
°C
Wind Press
QNH
hPa
Press
MSL
hPa
Rain
since 9 am
mm
Dir
 
Spd
km/h
Gust
km/h
Spd
kts
Gust
kts
02/06:30am 13.9 10.7 11.2 84 1.4 NW 19 26 10 14 1011.9 1011.9 1.0
02/06:00am 15.0 10.7 10.8 76 2.2 NW 24 37 13 20 1011.9 1011.9 0.8
02/05:30am 14.6 10.1 10.0 74 2.4 NW 24 35 13 19 1012.1 1012.1 0.8
02/05:00am 14.3 10.5 9.9 75 2.3 NW 20 30 11 16 1012.4 1012.4 0.8
02/04:30am 14.3 11.0 9.7 74 2.4 NW 17 28 9 15 1012.4 1012.4 0.8
02/04:00am 13.4 9.5 9.3 76 2.1 NW 20 26 11 14 1012.7 1012.7 0.8
02/03:30am 13.6 10.4 9.8 78 2.0 NW 17 30 9 16 1012.8 1012.8 0.8
02/03:00am 12.1 9.1 9.3 83 1.4 NW 15 19 8 10 1013.3 1013.3 0.8
02/02:30am 11.7 9.8 10.6 93 0.6 NNW 11 13 6 7 1013.7 1013.7 0.8
02/02:00am 11.7 10.5 10.4 92 0.7 WNW 7 9 4 5 1014.2 1014.2 0.8
02/01:30am 12.2 8.6 10.4 89 0.9 W 20 28 11 15 1015.0 1015.0 0.4
02/01:00am 13.0 9.3 7.9 71 2.5 NW 17 24 9 13 1014.8 1014.8 0.0
02/12:30am 13.2 8.3 8.5 73 2.3 NW 24 32 13 17 1015.2 1015.2 0.0
02/12:00am 11.1 9.7 9.5 90 0.8 WSW 7 17 4 9 1015.6 1015.6 0.0
 
Date/Time
CST
Temp
°C
App
Temp
°C
Dew
Point
Rel
Hum
%
Delta-T
°C
Wind Press
QNH
hPa
Press
MSL
hPa
Rain
since 9 am
mm
Dir
 
Spd
km/h
Gust
km/h
Spd
kts
Gust
kts
01/11:30pm 11.0 10.9 9.3 89 0.8 CALM 0 0 0 0 1016.0 1016.0 0.0
01/11:00pm 11.2 10.6 9.1 87 1.0 N 2 7 1 4 1016.2 1016.2 0.0
01/10:30pm 12.1 10.2 8.9 81 1.6 N 9 9 5 5 1016.8 1016.8 0.0
01/10:00pm 12.8 10.9 8.9 77 2.0 N 9 9 5 5 1016.9 1016.9 0.0
01/09:30pm 11.9 10.4 9.1 83 1.4 W 7 20 4 11 1017.4 1017.4 0.0
01/09:00pm 13.0 12.7 8.5 74 2.2 CALM 0 0 0 0 1017.2 1017.2 0.0
01/08:30pm 13.1 12.7 8.2 72 2.4 CALM 0 6 0 3 1017.3 1017.3 0.0
01/08:00pm 11.9 9.9 8.6 80 1.6 WNW 9 11 5 6 1017.5 1017.5 0.0
01/07:30pm 12.3 9.8 8.4 77 1.9 NW 11 15 6 8 1017.5 1017.5 0.0
01/07:00pm 12.0 9.8 7.7 75 2.1 NW 9 11 5 6 1017.4 1017.4 0.0
01/06:30pm 12.7 10.5 8.0 73 2.3 WNW 9 13 5 7 1017.3 1017.3 0.0
01/06:00pm 13.5 11.4 8.4 71 2.5 W 9 11 5 6 1017.0 1017.0 0.0
01/05:30pm 14.1 11.1 7.9 66 3.1 W 13 17 7 9 1016.8 1016.8 0.0
01/05:00pm 15.2 11.4 7.5 60 3.8 WSW 17 20 9 11 1016.7 1016.7 0.0
01/04:30pm 15.8 11.7 7.8 59 4.0 WSW 19 22 10 12 1016.6 1016.6 0.0
01/04:00pm 16.1 12.0 7.8 58 4.2 SW 19 22 10 12 1016.4 1016.4 0.0
01/03:30pm 16.5 13.5 6.1 50 5.0 SSW 11 13 6 7 1016.2 1016.2 0.0
01/03:00pm 16.7 12.4 6.8 52 4.9 SW 19 24 10 13 1016.2 1016.2 0.0
01/02:30pm 16.9 12.8 6.1 49 5.3 SW 17 24 9 13 1016.1 1016.1 0.0
01/02:00pm 18.2 13.3 4.0 39 6.7 WSW 19 32 10 17 1016.0 1016.0 0.0
01/01:30pm 17.5 12.9 5.4 45 5.8 WSW 19 26 10 14 1016.1 1016.1 0.0
01/01:00pm 18.1 12.8 5.0 42 6.3 WSW 22 30 12 16 1016.0 1016.0 0.0
01/12:30pm 17.2 11.4 6.1 48 5.4 SW 26 37 14 20 1016.1 1016.1 0.0
01/12:00pm 16.4 10.9 3.8 43 5.8 SW 22 32 12 17 1016.2 1016.2 0.0
01/11:30am 17.2 11.1 6.4 49 5.3 SW 28 35 15 19 1016.4 1016.4 0.0
01/11:00am 16.5 10.2 7.4 55 4.5 WSW 30 39 16 21 1016.6 1016.6 0.0
01/10:30am 16.4 11.2 7.3 55 4.5 SW 24 32 13 17 1016.8 1016.8 0.0
01/10:00am 16.0 11.0 8.2 60 3.9 WSW 24 30 13 16 1016.8 1016.8 0.0
01/09:30am 15.0 9.3 8.5 65 3.3 WSW 28 35 15 19 1016.7 1016.7 0.0
01/09:00am 13.9 9.9 8.3 69 2.8 WSW 19 26 10 14 1016.3 1016.3 3.2
01/08:30am 13.0 9.0 8.1 72 2.4 W 19 24 10 13 1016.0 1016.0 3.2
01/08:00am 11.8 7.8 8.1 78 1.8 WSW 19 26 10 14 1015.7 1015.7 3.2
01/07:30am 10.6 6.8 7.5 81 1.5 W 17 22 9 12 1014.8 1014.8 3.2
01/07:00am 10.3 6.1 7.5 83 1.3 W 19 22 10 12 1014.5 1014.5 3.2
01/06:30am 10.0 6.2 7.4 84 1.2 WNW 17 20 9 11 1014.0 1014.0 3.2
01/06:00am 10.1 6.2 7.3 83 1.3 WNW 17 20 9 11 1013.5 1013.5 3.2
01/05:30am 10.5 5.8 7.6 82 1.4 W 22 30 12 16 1013.0 1013.0 3.2
01/05:00am 11.0 6.8 8.4 84 1.3 W 20 37 11 20 1012.3 1012.3 3.2
01/04:30am 10.4 6.7 7.8 84 1.3 W 17 24 9 13 1011.4 1011.4 3.2
01/04:00am 10.5 7.3 8.4 87 1.0 WSW 15 20 8 11 1011.2 1011.2 3.2
01/03:30am 10.7 7.0 7.9 83 1.4 W 17 22 9 12 1010.4 1010.4 3.2
01/03:00am 10.8 7.1 7.9 82 1.4 W 17 24 9 13 1009.9 1009.9 3.2
01/02:30am 11.3 7.0 7.8 79 1.7 W 20 28 11 15 1009.5 1009.5 3.2
01/02:00am 11.8 6.4 7.9 77 1.9 W 26 39 14 21 1009.2 1009.2 3.0
01/01:30am 11.5 7.3 8.4 81 1.5 W 20 28 11 15 1008.9 1008.9 3.0
01/01:00am 10.8 7.3 8.6 86 1.1 W 17 20 9 11 1008.8 1008.8 3.0
01/12:30am 11.6 7.9 9.3 86 1.2 W 19 24 10 13 1008.3 1008.3 3.0
01/12:00am 11.8 9.4 10.0 89 0.9 W 13 19 7 10 1008.4 1008.4 2.6
 
Date/Time
CST
Temp
°C
App
Temp
°C
Dew
Point
Rel
Hum
%
Delta-T
°C
Wind Press
QNH
hPa
Press
MSL
hPa
Rain
since 9 am
mm
Dir
 
Spd
km/h
Gust
km/h
Spd
kts
Gust
kts
30/11:30pm 12.0 8.2 9.7 86 1.2 W 20 28 11 15 1008.1 1008.1 2.6
30/11:00pm 12.3 7.5 10.2 87 1.1 W 26 41 14 22 1007.8 1007.8 2.6
30/10:45pm 12.5 7.8 10.6 88 1.0 W 26 35 14 19 1007.8 1007.8 2.6
30/10:30pm 12.6 8.8 11.0 90 0.8 WSW 22 32 12 17 1007.6 1007.6 2.6
30/10:24pm 12.9 9.6 10.8 87 1.1 W 19 26 10 14 1008.0 1008.0 1.0
30/10:00pm 13.1 9.4 9.5 79 1.8 WNW 19 28 10 15 1007.2 1007.2 0.0
30/09:30pm 13.2 7.5 9.8 80 1.7 WSW 30 43 16 23 1006.9 1006.9 0.0
30/09:12pm 14.7 8.6 10.5 76 2.2 W 33 54 18 29 1006.8 1006.8 0.0
30/09:00pm 16.2 10.6 11.6 74 2.5 WNW 32 43 17 23 1006.7 1006.7 0.0
30/08:30pm 16.3 10.2 11.9 75 2.4 WNW 35 56 19 30 1005.9 1005.9 0.0
30/08:06pm 17.1 10.0 12.2 73 2.7 WNW 41 59 22 32 1005.0 1005.0 0.0
30/08:00pm 17.1 9.6 12.0 72 2.8 WNW 43 57 23 31 1005.2 1005.2 0.0
30/07:33pm 18.1 10.4 10.0 59 4.3 WNW 41 59 22 32 1004.8 1004.8 0.0
30/07:30pm 18.2 10.0 9.8 58 4.5 WNW 43 59 23 32 1004.7 1004.7 0.0
30/07:00pm 20.2 10.6 10.9 55 5.1 WNW 52 82 28 44 1005.1 1005.1 0.0
30/06:55pm 20.8 10.6 10.0 50 5.8 WNW 54 82 29 44 1004.5 1004.5 0.0
30/06:30pm 20.9 13.3 9.2 47 6.2 NW 39 63 21 34 1004.4 1004.4 0.0
30/06:14pm 20.9 15.1 10.7 52 5.6 NW 32 50 17 27 1004.5 1004.5 0.0
30/06:00pm 21.0 16.7 10.8 52 5.6 NW 24 37 13 20 1004.3 1004.3 0.0
30/05:30pm 21.6 16.6 9.5 46 6.5 NW 26 39 14 21 1004.3 1004.3 0.0
30/05:00pm 21.5 17.5 10.6 50 6.0 NNW 22 30 12 16 1004.4 1004.4 0.0
30/04:30pm 21.7 17.9 11.1 51 5.9 NNW 22 32 12 17 1004.3 1004.3 0.0
30/04:00pm 22.9 17.9 9.7 43 7.2 NNW 26 46 14 25 1004.6 1004.6 0.0
30/03:53pm 23.5 18.2 9.9 42 7.4 NNW 28 46 15 25 1004.6 1004.6 0.0
30/03:30pm 23.2 17.9 9.9 43 7.3 NNW 28 44 15 24 1004.6 1004.6 0.0
30/03:00pm 23.2 17.1 9.9 43 7.3 NNW 32 43 17 23 1005.0 1005.0 0.0
30/02:47pm 23.2 17.9 9.9 43 7.2 NNW 28 46 15 25 1004.9 1004.9 0.0
30/02:30pm 23.1 17.6 10.5 45 7.0 N 30 41 16 22 1005.3 1005.3 0.0
30/02:01pm 22.6 16.8 10.7 47 6.6 NNW 32 54 17 29 1005.6 1005.6 0.0
30/02:00pm 22.8 17.2 11.5 49 6.3 NNW 32 48 17 26 1005.7 1005.7 0.0
30/01:41pm 22.5 16.9 11.6 50 6.1 N 32 50 17 27 1006.2 1006.2 0.0
30/01:30pm 22.4 16.9 12.4 53 5.7 NNW 33 44 18 24 1006.4 1006.4 0.0
30/01:00pm 22.1 16.8 12.6 55 5.4 N 32 44 17 24 1007.2 1007.2 0.0
30/12:35pm 21.9 17.4 12.5 55 5.3 NNW 28 46 15 25 1007.8 1007.8 0.0
30/12:30pm 22.2 18.1 12.7 55 5.4 NNW 26 43 14 23 1007.9 1007.9 0.0
30/12:00pm 21.5 16.1 12.1 55 5.3 NNW 32 48 17 26 1008.4 1008.4 0.0
30/11:42am 21.5 17.1 12.9 58 4.9 NNW 28 48 15 26 1008.8 1008.8 0.0
30/11:30am 21.3 17.4 13.2 60 4.6 N 26 35 14 19 1009.1 1009.1 0.0
30/11:00am 20.9 16.1 11.8 56 5.1 N 28 37 15 20 1009.8 1009.8 0.0
30/10:30am 20.0 16.2 13.7 67 3.6 N 26 41 14 22 1010.3 1010.3 0.0
30/10:00am 19.9 16.9 14.7 72 3.0 N 24 37 13 20 1010.5 1010.5 0.0
30/09:30am 18.7 15.5 15.4 81 1.9 N 26 39 14 21 1010.9 1010.9 0.0
30/09:00am 18.6 15.8 14.3 76 2.5 N 22 30 12 16 1011.0 1011.0 0.0
30/08:30am 18.4 16.4 13.9 75 2.6 NNW 17 26 9 14 1011.1 1011.1 0.0
30/08:00am 17.5 16.6 13.6 78 2.2 NNW 11 17 6 9 1010.9 1010.9 0.0
30/07:30am 16.5 15.8 13.2 81 1.8 NNW 9 13 5 7 1010.9 1010.9 0.0
30/07:00am 16.1 14.5 12.7 80 1.9 NNW 13 19 7 10 1010.6 1010.6 0.0
30/06:30am 15.7 14.6 13.0 84 1.5 NNW 11 17 6 9 1010.4 1010.4 0.0
30/06:00am 15.7 14.9 12.8 83 1.6 N 9 15 5 8 1010.4 1010.4 0.0
30/05:30am 15.8 14.6 12.9 83 1.6 NNW 11 17 6 9 1010.5 1010.5 0.0
30/05:00am 16.0 15.3 13.3 84 1.5 NNW 9 17 5 9 1010.6 1010.6 0.0
30/04:30am 15.9 14.6 13.6 86 1.3 NNW 13 17 7 9 1010.5 1010.5 0.0
30/04:00am 15.6 14.7 13.8 89 1.0 N 11 17 6 9 1010.2 1010.2 0.0
30/03:30am 15.0 14.7 13.4 90 0.9 N 7 11 4 6 1010.3 1010.3 0.0
30/03:00am 15.6 14.9 13.3 86 1.3 N 9 13 5 7 1010.3 1010.3 0.0
30/02:30am 15.5 14.7 13.0 85 1.4 N 9 13 5 7 1010.7 1010.7 0.0
30/02:00am 15.2 14.8 12.9 86 1.3 N 7 13 4 7 1011.0 1011.0 0.0
30/01:30am 15.1 14.5 12.2 83 1.6 NW 7 11 4 6 1011.1 1011.1 0.0
30/01:00am 15.9 15.3 13.4 85 1.4 N 9 15 5 8 1011.2 1011.2 0.0
30/12:30am 15.4 14.6 12.9 85 1.4 NNW 9 13 5 7 1011.4 1011.4 0.0
30/12:00am 14.3 15.5 13.8 97 0.3 CALM 0 0 0 0 1011.5 1011.5 0.0
 
Date/Time
CST
Temp
°C
App
Temp
°C
Dew
Point
Rel
Hum
%
Delta-T
°C
Wind Press
QNH
hPa
Press
MSL
hPa
Rain
since 9 am
mm
Dir
 
Spd
km/h
Gust
km/h
Spd
kts
Gust
kts
29/11:30pm 12.2 12.7 11.7 97 0.3 CALM 0 0 0 0 1011.7 1011.7 0.0
29/11:00pm 11.5 11.8 10.9 96 0.3 CALM 0 0 0 0 1012.0 1012.0 0.0
29/10:30pm 11.1 11.3 10.5 96 0.3 CALM 0 0 0 0 1012.3 1012.3 0.0
29/10:00pm 11.7 12.0 10.9 95 0.4 CALM 0 0 0 0 1012.2 1012.2 0.0
29/09:57pm 12.0 12.4 11.4 96 0.3 CALM 0 0 0 0 1012.3 1012.3 0.0
29/09:38pm 11.9 12.3 11.1 95 0.4 CALM 0 0 0 0 1012.2 1012.2 0.0
29/09:30pm 11.9 11.9 11.1 95 0.4 NW 2 7 1 4 1012.2 1012.2 0.0
29/09:00pm 12.4 11.7 11.3 93 0.6 NW 6 6 3 3 1012.1 1012.1 0.0
29/08:30pm 13.9 13.4 12.6 92 0.7 NW 7 7 4 4 1011.8 1011.8 0.0
29/08:00pm 14.4 13.7 13.1 92 0.7 NW 9 9 5 5 1011.8 1011.8 0.0
29/07:30pm 15.0 14.3 13.2 89 1.0 NW 9 11 5 6 1011.8 1011.8 0.0
29/07:00pm 16.6 16.1 13.9 84 1.5 NNW 9 13 5 7 1011.6 1011.6 0.0
29/06:30pm 16.8 15.9 13.7 82 1.8 NNW 11 13 6 7 1011.3 1011.3 0.0
29/06:00pm 17.5 16.9 13.6 78 2.2 NNW 9 11 5 6 1011.0 1011.0 0.0
29/05:30pm 18.2 16.6 12.9 71 3.0 WNW 13 20 7 11 1010.7 1010.7 0.0
29/05:00pm 19.6 17.6 12.8 65 3.8 WNW 15 20 8 11 1010.6 1010.6 0.0
29/04:30pm 20.4 17.4 12.6 61 4.4 WNW 20 26 11 14 1010.6 1010.6 0.0
29/04:00pm 20.8 16.5 10.9 53 5.4 WNW 24 30 13 16 1010.5 1010.5 0.0
29/03:30pm 21.5 17.2 10.9 51 5.8 WNW 24 35 13 19 1010.4 1010.4 0.0
29/03:00pm 21.8 17.5 12.1 54 5.5 WNW 26 32 14 17 1010.1 1010.1 0.0
29/02:30pm 21.4 16.8 10.9 51 5.8 NW 26 33 14 18 1010.0 1010.0 0.0
29/02:00pm 21.5 18.9 13.7 61 4.5 NNW 20 28 11 15 1010.0 1010.0 0.0
29/01:30pm 20.9 18.8 14.8 68 3.6 NW 19 26 10 14 1010.1 1010.1 0.0
29/01:00pm 20.7 18.5 15.0 70 3.4 NW 20 28 11 15 1010.3 1010.3 0.0
29/12:30pm 20.4 18.1 14.7 70 3.3 NNW 20 33 11 18 1010.6 1010.6 0.0
29/12:00pm 19.6 17.0 14.8 74 2.8 NNW 22 32 12 17 1010.7 1010.7 0.0
29/11:30am 20.0 17.8 14.8 72 3.0 NNW 20 32 11 17 1011.1 1011.1 0.0
29/11:00am 19.6 17.5 15.3 76 2.5 N 20 32 11 17 1011.1 1011.1 0.0
29/10:30am 18.9 16.9 15.4 80 2.1 NNW 20 28 11 15 1011.3 1011.3 0.0
29/10:00am 18.0 16.1 15.1 83 1.7 NNW 19 26 10 14 1011.4 1011.4 0.0
29/09:30am 17.3 16.1 15.1 87 1.3 N 15 20 8 11 1011.4 1011.4 0.0
29/09:00am 16.5 15.3 15.0 91 0.9 NNW 15 20 8 11 1011.7 1011.7 9.6
29/08:30am 15.6 13.7 14.3 92 0.7 N 17 24 9 13 1011.5 1011.5 9.6
29/08:00am 15.2 13.3 14.1 93 0.6 N 17 24 9 13 1011.6 1011.6 9.6
29/07:30am 15.0 12.5 14.2 95 0.5 N 20 26 11 14 1011.4 1011.4 9.6
29/07:00am 14.6 12.1 13.6 94 0.6 N 19 26 10 14 1010.9 1010.9 9.4

Other Formats:

Comma delimited format used in spreadsheet applications
http://www.bom.gov.au/fwo/IDS60801/IDS60801.95807.axf

JavaScript Object Notation format (JSON) in row-major order
http://www.bom.gov.au/fwo/IDS60801/IDS60801.95807.json